Atqasuk Airport

About
Name: Atqasuk Airport
Identifier:  ATK/PATQ
Serves:  Atqasuk, Alaska
Owner:  North Slope Borough
Public/Private:  Public
Local Time:  22. Aug 20:21 AKDT
Description: Atqasuk Edward Burnell Sr. Memorial Airport is an uncontrolled public use airport located one nautical mile south of the central business district of Atqasuk,[1] a city in North Slope Borough, Alaska, United States. The airport is owned by North Slope Borough.[1]
Source: Wikipedia
Location
Runways
Identifier Length (m/ft) Surface
6/24 4,370/4,370 Gravel
Flights per Day
0 flights
Distance: 94km (58mi)
Punctuality
50% (0 flights per day delayed)
Delay Average: 69 minutes
Current Weather
 6 C (Humidity: 81%)
  13kt (24km/h / 14mph) from 270°
  Broken clouds at 1,700 feet (518 meter)
  Broken clouds at 2,400 feet (731 meter)
  Overcast at 3,000 feet (914 meter)
  16km (10 mi.)
 Light/Moderate: Rain
 METAR PATQ 230403Z AUTO 27013KT 10SM -RA BKN017 BKN024 OVC030 06/03 A2965 RMK AO2 P0000 TSNO

Current Flights

Departures
Number Departure To Airline
Arrivals
Number Arrival From Airline

Current Delays

Departures
N/A
Arrivals
N/A

Destinations

Top Destinations
Airport Flights
per week
Seats
per week
  Deadhorse (SCC) 0 - 0 0

Airlines & Planes

Top Airlines
Airline Flights
per Day
Seats
per Day
Lynden Air Cargo 0 -
Top Plane Types
Model Flights Seats
Lockheed C-130 0.0/day - 0